createdAt,value
2022-12-25T00:02:19.881Z,4.78
2022-12-25T00:04:46.543Z,4.05
2022-12-25T00:07:13.198Z,4.13
2022-12-25T00:09:39.985Z,4.28
2022-12-25T00:12:06.700Z,4.30
2022-12-25T00:14:33.941Z,4.45
2022-12-25T00:21:54.484Z,3.42
2022-12-25T00:24:21.439Z,3.83
2022-12-25T00:26:51.509Z,4.35
2022-12-25T00:29:18.677Z,4.20
2022-12-25T00:34:11.960Z,3.65
2022-12-25T00:36:41.935Z,5.03
2022-12-25T00:39:09.730Z,4.90
2022-12-25T00:41:54.778Z,4.78
2022-12-25T00:44:21.510Z,3.95
2022-12-25T00:46:47.990Z,3.03
2022-12-25T00:49:14.934Z,3.05
2022-12-25T00:51:42.280Z,2.60
2022-12-25T00:54:09.986Z,3.33
2022-12-25T00:56:37.243Z,2.97
2022-12-25T00:59:04.603Z,3.00
2022-12-25T01:01:31.490Z,3.72
2022-12-25T01:03:58.659Z,2.75
2022-12-25T01:09:11.888Z,2.55
2022-12-25T01:11:38.998Z,3.20
2022-12-25T01:14:05.788Z,3.08
2022-12-25T01:16:32.464Z,2.80
2022-12-25T01:18:59.749Z,3.03
2022-12-25T01:21:26.385Z,2.90
2022-12-25T01:23:53.557Z,3.08
2022-12-25T01:26:21.949Z,3.40
2022-12-25T01:28:49.674Z,3.28
2022-12-25T01:31:18.752Z,3.42
2022-12-25T01:33:45.781Z,2.60
2022-12-25T01:38:46.790Z,2.25
2022-12-25T01:41:15.145Z,2.55
2022-12-25T01:44:00.900Z,2.47
2022-12-25T01:46:27.772Z,2.60
2022-12-25T01:48:57.128Z,3.33
2022-12-25T01:51:32.093Z,2.30
2022-12-25T01:54:03.807Z,2.78
2022-12-25T01:56:32.151Z,2.70
2022-12-25T01:58:59.716Z,2.90
2022-12-25T02:01:26.723Z,2.60
2022-12-25T02:06:30.563Z,2.13
2022-12-25T02:08:59.012Z,2.60
2022-12-25T02:11:44.662Z,2.90
2022-12-25T02:14:11.659Z,3.05
2022-12-25T02:20:20.444Z,2.13
2022-12-25T02:22:55.942Z,2.17
2022-12-25T02:25:34.933Z,2.38
2022-12-25T02:28:19.774Z,2.53
2022-12-25T02:30:56.422Z,2.70
2022-12-25T02:33:55.703Z,2.72
2022-12-25T02:36:26.823Z,3.10
2022-12-25T02:39:18.641Z,3.28
2022-12-25T02:41:48.926Z,3.10
2022-12-25T02:44:41.705Z,3.10
2022-12-25T02:47:29.167Z,2.90
2022-12-25T02:50:16.165Z,2.95
2022-12-25T02:53:03.033Z,2.78
2022-12-25T02:55:55.522Z,2.33
2022-12-25T02:58:43.875Z,3.20
2022-12-25T03:01:37.078Z,3.00
2022-12-25T03:04:28.295Z,3.10
2022-12-25T03:07:01.391Z,3.20
2022-12-25T03:09:54.009Z,3.55
2022-12-25T03:12:39.032Z,3.67
2022-12-25T03:15:39.774Z,4.07
2022-12-25T03:18:15.836Z,6.18
2022-12-25T03:21:01.392Z,5.83
2022-12-25T03:23:51.584Z,5.95
2022-12-25T03:29:38.351Z,7.38
2022-12-25T03:32:31.850Z,6.85
2022-12-25T03:35:49.916Z,6.40
2022-12-25T03:38:48.252Z,6.82
2022-12-25T03:41:49.120Z,7.07
2022-12-25T03:44:52.160Z,7.53
2022-12-25T03:51:13.315Z,7.32
2022-12-25T03:54:46.891Z,8.18
2022-12-25T03:58:05.523Z,6.28
2022-12-25T04:01:06.118Z,5.65
2022-12-25T04:04:06.730Z,6.20
2022-12-25T04:07:15.995Z,5.95
2022-12-25T04:10:22.633Z,6.93
2022-12-25T04:13:18.653Z,5.43
2022-12-25T04:16:18.613Z,5.57
2022-12-25T04:19:16.567Z,6.78
2022-12-25T04:22:17.405Z,7.10
2022-12-25T04:28:57.404Z,8.32
2022-12-25T04:32:06.719Z,8.00
2022-12-25T04:35:28.006Z,9.20
2022-12-25T04:38:21.169Z,6.35
2022-12-25T04:41:03.721Z,11.18
2022-12-25T04:43:43.682Z,7.32
2022-12-25T04:46:58.258Z,7.45
2022-12-25T04:49:58.962Z,7.28
2022-12-25T04:53:07.515Z,7.47
2022-12-25T04:56:07.105Z,5.72
2022-12-25T04:59:08.870Z,6.05
2022-12-25T05:01:48.967Z,6.60
2022-12-25T05:04:30.481Z,7.10
2022-12-25T05:07:08.359Z,9.05
2022-12-25T05:09:42.560Z,9.88
2022-12-25T05:12:37.718Z,12.88
2022-12-25T05:15:21.133Z,9.85
2022-12-25T05:18:32.897Z,9.80
2022-12-25T05:21:43.294Z,8.45
2022-12-25T05:28:27.399Z,9.20
2022-12-25T05:31:08.512Z,9.18
2022-12-25T05:33:59.059Z,9.20
2022-12-25T05:36:43.420Z,6.70
2022-12-25T05:40:06.829Z,7.45
2022-12-25T05:47:04.240Z,7.00
2022-12-25T09:43:53.559Z,9.57
2022-12-25T12:00:45.628Z,5.78
2022-12-25T12:24:22.613Z,5.97
2022-12-25T12:27:05.408Z,6.03
2022-12-25T12:29:53.724Z,6.20
2022-12-25T12:32:44.875Z,7.13
2022-12-25T12:35:21.973Z,6.18
2022-12-25T12:37:53.597Z,6.53
2022-12-25T12:40:35.160Z,5.82
2022-12-25T12:43:02.745Z,6.88
2022-12-25T12:45:34.152Z,7.78
2022-12-25T12:48:01.128Z,6.75
2022-12-25T12:50:27.755Z,7.03
2022-12-25T12:52:55.646Z,7.15
2022-12-25T12:55:31.028Z,7.20
2022-12-25T12:58:03.588Z,6.45
2022-12-25T13:00:39.834Z,8.25
2022-12-25T13:03:24.947Z,7.70
2022-12-25T13:06:00.885Z,5.90
2022-12-25T13:08:34.595Z,7.33
2022-12-25T13:11:14.444Z,6.60
2022-12-25T13:13:47.097Z,7.22
2022-12-25T13:16:22.369Z,6.55
2022-12-25T13:18:54.443Z,6.90
2022-12-25T13:21:28.018Z,5.78
2022-12-25T13:24:03.446Z,8.00
2022-12-25T13:26:30.990Z,7.03
2022-12-25T13:28:57.608Z,8.38
2022-12-25T13:31:26.764Z,6.13
2022-12-25T13:33:58.054Z,9.15
2022-12-25T13:36:27.289Z,8.02
2022-12-25T13:38:56.475Z,8.80
2022-12-25T13:41:45.971Z,8.63
2022-12-25T13:44:26.360Z,8.15
2022-12-25T13:46:52.996Z,6.75
2022-12-25T13:49:22.923Z,6.53
2022-12-25T13:51:51.223Z,8.10
2022-12-25T13:54:18.994Z,7.75
2022-12-25T13:56:51.244Z,8.55
2022-12-25T13:59:21.397Z,8.32
2022-12-25T14:01:50.238Z,8.30
2022-12-25T14:04:23.193Z,9.10
2022-12-25T14:06:50.992Z,9.68
2022-12-25T14:09:19.671Z,9.10
2022-12-25T14:11:50.988Z,7.70
2022-12-25T14:14:25.656Z,9.60
2022-12-25T14:16:57.079Z,9.63
2022-12-25T14:19:36.987Z,8.50
2022-12-25T14:22:19.095Z,8.80
2022-12-25T14:24:47.516Z,8.25
2022-12-25T14:27:28.004Z,8.85
2022-12-25T14:29:57.458Z,7.65
2022-12-25T14:32:37.266Z,7.63
2022-12-25T14:35:04.640Z,7.88
2022-12-25T14:37:34.020Z,7.03
2022-12-25T14:40:25.440Z,8.48
2022-12-25T14:43:01.304Z,8.00
2022-12-25T14:45:34.327Z,8.38
2022-12-25T14:48:25.394Z,7.22
2022-12-25T14:51:05.221Z,7.65
2022-12-25T14:53:46.133Z,7.63
2022-12-25T14:56:19.561Z,7.07
2022-12-25T14:58:55.739Z,7.05
2022-12-25T15:01:33.468Z,7.32
2022-12-25T15:04:12.436Z,8.77
2022-12-25T15:06:51.554Z,8.10
2022-12-25T15:09:19.168Z,7.88
2022-12-25T15:11:51.465Z,7.13
2022-12-25T15:14:18.882Z,6.72
2022-12-25T15:16:54.643Z,6.60
2022-12-25T15:19:39.256Z,6.93
2022-12-25T15:22:14.885Z,7.07
2022-12-25T15:24:41.491Z,6.07
2022-12-25T15:27:17.064Z,6.72
2022-12-25T15:30:09.198Z,6.65
2022-12-25T15:32:30.917Z,6.93
2022-12-25T15:34:58.044Z,5.90
2022-12-25T15:37:24.655Z,6.88
2022-12-25T15:39:51.469Z,7.47
2022-12-25T15:42:21.711Z,7.63
2022-12-25T15:44:51.641Z,8.73
2022-12-25T15:47:23.144Z,6.72
2022-12-25T15:49:53.196Z,6.25
2022-12-25T15:52:19.802Z,6.00
2022-12-25T15:54:48.162Z,6.35
2022-12-25T15:57:19.716Z,8.18
2022-12-25T15:59:46.545Z,6.53
2022-12-25T16:02:16.877Z,9.60
2022-12-25T16:04:43.922Z,11.10
2022-12-25T16:07:15.956Z,9.57
2022-12-25T16:09:43.244Z,9.63
2022-12-25T16:12:13.483Z,11.68
2022-12-25T16:14:40.046Z,10.80
2022-12-25T16:17:11.508Z,8.65
2022-12-25T16:19:40.588Z,9.55
2022-12-25T16:22:18.165Z,9.75
2022-12-25T16:24:44.784Z,8.00
2022-12-25T16:27:11.334Z,8.50
2022-12-25T16:29:37.829Z,11.52
2022-12-25T16:32:04.968Z,19.40
2022-12-25T16:34:31.476Z,19.10
2022-12-25T16:36:58.063Z,13.82
2022-12-25T16:39:24.697Z,11.60
2022-12-25T16:41:51.224Z,9.98
2022-12-25T16:44:20.094Z,8.35
2022-12-25T16:46:46.914Z,8.98
2022-12-25T16:49:13.620Z,7.13
2022-12-25T16:51:40.949Z,7.53
2022-12-25T16:54:08.656Z,8.50
2022-12-25T16:56:39.577Z,6.93
2022-12-25T16:59:06.497Z,6.38
2022-12-25T17:01:33.302Z,7.97
2022-12-25T17:06:35.385Z,7.78
2022-12-25T17:09:04.771Z,7.63
2022-12-25T17:11:32.004Z,8.43
2022-12-25T17:14:02.505Z,8.52
2022-12-25T17:16:32.660Z,9.95
2022-12-25T17:19:04.164Z,8.70
2022-12-25T17:21:34.923Z,9.93
2022-12-25T17:24:04.248Z,15.20
2022-12-25T17:26:32.713Z,10.75
2022-12-25T17:29:01.599Z,9.82
2022-12-25T17:31:29.135Z,8.80
2022-12-25T17:33:56.365Z,10.48
2022-12-25T17:36:25.581Z,9.82
2022-12-25T17:38:52.225Z,8.88
2022-12-25T17:41:20.298Z,8.32
2022-12-25T17:43:50.307Z,9.90
2022-12-25T17:46:20.589Z,9.20
2022-12-25T17:48:47.398Z,8.50
2022-12-25T17:51:20.131Z,8.73
2022-12-25T17:53:49.507Z,10.30
2022-12-25T17:56:16.878Z,9.80
2022-12-25T17:58:43.791Z,10.93
2022-12-25T18:01:16.607Z,9.60
2022-12-25T18:03:44.584Z,8.98
2022-12-25T18:06:14.901Z,9.82
2022-12-25T18:08:43.652Z,10.07
2022-12-25T18:11:23.171Z,8.90
2022-12-25T18:13:52.228Z,9.23
2022-12-25T18:16:22.478Z,9.07
2022-12-25T18:18:52.332Z,11.02
2022-12-25T18:21:21.477Z,10.77
2022-12-25T18:23:48.378Z,9.30
2022-12-25T18:26:15.284Z,10.65
2022-12-25T18:28:43.691Z,13.00
2022-12-25T18:31:15.833Z,12.35
2022-12-25T18:33:44.422Z,9.98
2022-12-25T18:36:13.254Z,14.40
2022-12-25T18:38:39.873Z,12.25
2022-12-25T18:41:07.794Z,10.27
2022-12-25T18:43:52.288Z,11.85
2022-12-25T18:46:27.618Z,13.15
2022-12-25T18:48:56.281Z,13.75
2022-12-25T18:51:23.196Z,16.92
2022-12-25T18:53:52.940Z,15.00
2022-12-25T18:56:28.259Z,12.45
2022-12-25T18:58:54.740Z,10.25
2022-12-25T19:01:23.551Z,8.35
2022-12-25T19:03:51.152Z,9.65
2022-12-25T19:06:24.988Z,12.25
2022-12-25T19:08:52.282Z,8.10
2022-12-25T19:11:20.130Z,8.98
2022-12-25T19:13:47.721Z,13.02
2022-12-25T19:16:15.411Z,14.38
2022-12-25T19:18:43.308Z,12.55
2022-12-25T19:21:10.908Z,13.02
2022-12-25T19:23:38.585Z,9.63
2022-12-25T19:26:06.758Z,8.60
2022-12-25T19:28:34.943Z,8.02
2022-12-25T19:31:04.767Z,7.45
2022-12-25T19:33:32.341Z,7.95
2022-12-25T19:36:01.324Z,7.53
2022-12-25T19:38:28.734Z,7.35
2022-12-25T19:41:01.405Z,10.68
2022-12-25T19:43:33.479Z,8.15
2022-12-25T19:46:01.514Z,8.93
2022-12-25T19:48:30.493Z,7.80
2022-12-25T19:50:57.867Z,7.63
2022-12-25T19:53:24.894Z,7.07
2022-12-25T19:55:52.885Z,6.85
2022-12-25T19:58:21.877Z,6.53
2022-12-25T20:00:59.897Z,12.73
2022-12-25T20:03:27.162Z,11.57
2022-12-25T20:05:53.835Z,9.95
2022-12-25T20:08:20.581Z,9.02
2022-12-25T20:10:47.173Z,8.73
2022-12-25T20:13:13.836Z,7.75
2022-12-25T20:15:40.544Z,7.28
2022-12-25T20:18:07.056Z,9.02
2022-12-25T20:20:33.675Z,9.10
2022-12-25T20:23:00.403Z,9.45
2022-12-25T20:25:26.986Z,7.65
2022-12-25T20:27:56.177Z,8.13
2022-12-25T20:30:22.702Z,7.40
2022-12-25T20:32:50.752Z,8.23
2022-12-25T20:35:17.539Z,13.00
2022-12-25T20:37:44.357Z,11.90
2022-12-25T20:40:11.602Z,10.63
2022-12-25T20:42:38.518Z,12.07
2022-12-25T20:45:07.413Z,11.10
2022-12-25T20:47:35.037Z,8.27
2022-12-25T20:50:01.643Z,7.43
2022-12-25T20:52:28.211Z,6.85
2022-12-25T20:54:54.812Z,6.30
2022-12-25T20:57:21.612Z,5.95
2022-12-25T20:59:49.304Z,6.93
2022-12-25T21:02:34.408Z,6.43
2022-12-25T21:05:06.365Z,6.18
2022-12-25T21:07:33.917Z,5.43
2022-12-25T21:10:00.829Z,4.88
2022-12-25T21:12:27.460Z,4.85
2022-12-25T21:14:54.261Z,4.70
2022-12-25T21:17:21.618Z,5.07
2022-12-25T21:19:49.870Z,4.80
2022-12-25T21:22:16.341Z,6.75
2022-12-25T21:24:43.245Z,5.05
2022-12-25T21:27:10.547Z,5.43
2022-12-25T21:29:37.241Z,4.85
2022-12-25T21:32:22.352Z,4.85
2022-12-25T21:34:49.288Z,5.55
2022-12-25T21:39:42.603Z,4.28
2022-12-25T21:42:10.866Z,4.57
2022-12-25T21:47:04.227Z,4.28
2022-12-25T21:49:49.242Z,4.28
2022-12-25T21:52:16.302Z,4.15
2022-12-25T21:57:09.405Z,4.35
2022-12-25T21:59:36.239Z,4.70
2022-12-25T22:02:11.005Z,4.55
2022-12-25T22:04:38.550Z,4.60
2022-12-25T22:09:45.397Z,4.13
2022-12-25T22:12:34.281Z,4.53
2022-12-25T22:15:09.480Z,4.10
2022-12-25T22:17:56.864Z,4.15
2022-12-25T22:20:28.050Z,3.80
2022-12-25T22:22:54.743Z,5.20
2022-12-25T22:25:24.126Z,5.38
2022-12-25T22:27:51.403Z,4.15
2022-12-25T22:30:21.470Z,5.00
2022-12-25T22:32:48.498Z,5.10
2022-12-25T22:35:15.952Z,4.10
2022-12-25T22:37:43.153Z,4.13
2022-12-25T22:40:12.910Z,4.95
2022-12-25T22:42:40.513Z,4.65
2022-12-25T22:52:27.367Z,2.90
2022-12-25T22:54:53.941Z,3.78
2022-12-25T22:57:20.443Z,4.20
2022-12-25T22:59:46.914Z,4.40
2022-12-25T23:02:13.513Z,5.15
2022-12-25T23:04:40.712Z,5.03
2022-12-25T23:09:34.324Z,4.45
2022-12-25T23:14:39.649Z,4.57
2022-12-25T23:17:30.218Z,4.82
2022-12-25T23:20:18.818Z,4.95
2022-12-25T23:23:05.190Z,4.47
2022-12-25T23:25:52.745Z,3.92
2022-12-25T23:28:40.945Z,4.03
2022-12-25T23:31:09.300Z,4.78
2022-12-25T23:33:35.802Z,5.05
2022-12-25T23:36:02.461Z,5.05
2022-12-25T23:38:28.932Z,4.68
2022-12-25T23:40:55.433Z,5.30
2022-12-25T23:43:22.164Z,6.60
2022-12-25T23:45:48.593Z,6.55
2022-12-25T23:48:15.060Z,6.10
2022-12-25T23:50:41.605Z,5.35
2022-12-25T23:53:08.056Z,5.72
2022-12-25T23:55:34.621Z,5.35
2022-12-25T23:58:01.188Z,5.43
